Time;durP1;ratioP1;P1;durP2;ratioP2;P2;SDS_P1;SDS_P2;PMS_P1;PMS_P2;Temp;Humidity;BMP_temperature;BMP_pressure;BME280_temperature;BME280_humidity;BME280_pressure;Samples;Min_cycle;Max_cycle;Signal;HPM_P1;HPM_P2
2021/12/23 00:00:42;;;;;;;;;45.50;41.00;;;;;0.56;68.84;101081.81;5036492;28;45420;-52
2021/12/23 00:03:07;;;;;;;;;56.50;43.50;;;;;0.56;68.96;101084.50;5019575;28;45544;-55
2021/12/23 00:05:33;;;;;;;;;46.50;38.50;;;;;0.57;69.39;101075.44;5036746;28;46432;-51
2021/12/23 00:07:59;;;;;;;;;53.50;45.75;;;;;0.58;69.67;101080.69;5036568;28;45410;-52
2021/12/23 00:10:24;;;;;;;;;54.50;46.00;;;;;0.60;69.42;101078.72;5036978;28;45304;-56
2021/12/23 00:12:50;;;;;;;;;44.75;38.50;;;;;0.58;69.51;101075.28;5036899;28;45327;-53
2021/12/23 00:15:38;;;;;;;;;50.00;44.50;;;;;0.60;69.11;101067.91;5018624;28;45607;-49
2021/12/23 00:18:17;;;;;;;;;57.75;45.50;;;;;0.57;69.25;101061.94;5021543;28;45449;-51
2021/12/23 00:23:27;;;;;;;;;51.75;39.50;;;;;0.52;69.74;101046.97;5036302;28;46433;-53
2021/12/23 00:25:58;;;;;;;;;44.00;37.50;;;;;0.54;69.38;101054.97;5036052;28;46072;-55
2021/12/23 00:28:24;;;;;;;;;60.00;40.00;;;;;0.52;69.80;101056.91;5001642;28;45756;-54
2021/12/23 00:30:49;;;;;;;;;48.00;42.50;;;;;0.27;69.47;101021.34;5036215;28;45286;-53
2021/12/23 00:33:15;;;;;;;;;49.00;43.00;;;;;0.38;70.01;101040.09;5036334;28;45473;-52
2021/12/23 00:35:40;;;;;;;;;43.50;36.75;;;;;0.22;70.13;101026.28;5035526;28;46661;-52
2021/12/23 00:38:15;;;;;;;;;52.75;42.50;;;;;0.36;70.23;101039.41;5035929;28;45450;-53
2021/12/23 00:40:40;;;;;;;;;53.75;38.75;;;;;0.33;69.84;101039.69;5036162;28;45351;-52
2021/12/23 00:43:06;;;;;;;;;51.75;42.50;;;;;0.37;70.75;101037.56;5036281;28;45326;-51
2021/12/23 00:45:31;;;;;;;;;54.50;41.50;;;;;0.40;70.29;101037.28;5017398;28;47222;-50
2021/12/23 00:47:57;;;;;;;;;51.25;35.25;;;;;0.33;70.63;101039.69;5018215;28;45346;-51
2021/12/23 00:50:22;;;;;;;;;50.00;39.75;;;;;0.36;70.46;101034.00;5017531;28;45291;-51
2021/12/23 00:52:55;;;;;;;;;50.25;40.50;;;;;0.33;69.99;101031.59;5036267;28;45323;-56
2021/12/23 00:55:21;;;;;;;;;54.75;38.00;;;;;0.06;70.72;100976.34;5035245;28;47073;-51
2021/12/23 00:57:46;;;;;;;;;54.50;41.25;;;;;0.28;70.65;101017.63;5018088;28;45292;-50
2021/12/23 01:00:15;;;;;;;;;50.50;44.75;;;;;0.25;70.44;101017.91;5035605;28;45889;-51
2021/12/23 01:02:44;;;;;;;;;44.75;39.00;;;;;0.32;70.23;101019.06;5017586;28;45426;-52
2021/12/23 01:05:10;;;;;;;;;51.75;40.50;;;;;0.34;70.81;101005.41;5035263;28;46476;-50
2021/12/23 01:07:35;;;;;;;;;57.00;40.75;;;;;0.44;70.78;101000.03;5001292;28;45385;-52
2021/12/23 01:10:01;;;;;;;;;40.00;33.25;;;;;0.24;70.62;100968.47;5035148;28;45352;-53
2021/12/23 01:12:33;;;;;;;;;57.25;45.75;;;;;0.37;70.02;100988.97;5001409;28;45573;-52
2021/12/23 01:15:12;;;;;;;;;49.75;38.75;;;;;0.46;70.40;100998.03;5026509;28;46102;-54
2021/12/23 01:17:55;;;;;;;;;52.25;41.50;;;;;0.50;70.03;101000.34;4999579;28;45213;-57
2021/12/23 01:20:26;;;;;;;;;65.25;47.75;;;;;0.22;70.31;100964.19;5015060;28;45496;-55
2021/12/23 01:22:56;;;;;;;;;50.75;45.00;;;;;0.53;69.96;101010.00;4998386;28;45380;-52
2021/12/23 01:25:22;;;;;;;;;56.25;45.25;;;;;0.49;70.01;101009.41;5013366;28;47081;-52
2021/12/23 01:27:47;;;;;;;;;50.75;45.25;;;;;0.42;70.18;100999.34;4925800;28;45324;-57
2021/12/23 01:30:14;;;;;;;;;50.75;43.50;;;;;0.33;70.49;100972.19;5030337;28;45762;-54
2021/12/23 01:32:40;;;;;;;;;46.25;39.00;;;;;0.40;70.72;100984.13;5017641;28;45556;-50
2021/12/23 01:35:06;;;;;;;;;57.00;42.75;;;;;0.38;70.33;100987.97;5016972;28;45410;-53
2021/12/23 01:37:31;;;;;;;;;61.50;44.75;;;;;0.43;70.44;100987.53;5034992;28;45446;-52
2021/12/23 01:39:57;;;;;;;;;55.50;45.50;;;;;0.44;70.27;100981.13;5033474;28;45395;-48
2021/12/23 01:42:23;;;;;;;;;47.75;41.50;;;;;0.51;70.42;100990.38;5035531;28;45383;-55
2021/12/23 01:44:48;;;;;;;;;53.25;40.50;;;;;0.45;70.34;100972.91;5034985;28;45939;-59
2021/12/23 01:47:14;;;;;;;;;54.75;45.50;;;;;0.38;70.08;100956.38;5017122;28;45414;-54
2021/12/23 01:49:39;;;;;;;;;46.00;37.00;;;;;0.54;70.39;100992.81;5016847;28;45434;-54
2021/12/23 01:52:05;;;;;;;;;56.25;44.50;;;;;0.35;69.87;100943.19;5035018;28;45410;-59
2021/12/23 01:54:31;;;;;;;;;56.00;43.75;;;;;0.55;69.84;100975.63;5016709;28;47656;-51
2021/12/23 01:56:57;;;;;;;;;34.50;27.75;;;;;0.52;70.85;100975.88;5016548;28;45362;-55
2021/12/23 01:59:23;;;;;;;;;54.25;40.25;;;;;0.52;70.88;100973.19;5035063;28;45306;-55
2021/12/23 02:01:49;;;;;;;;;54.25;42.50;;;;;0.44;70.76;100973.03;5035387;28;45453;-55
2021/12/23 02:04:14;;;;;;;;;51.50;41.00;;;;;0.46;70.83;100971.03;5034551;28;46439;-48
2021/12/23 02:06:40;;;;;;;;;60.50;40.50;;;;;0.44;70.39;100964.94;5016945;28;45358;-51
2021/12/23 02:09:05;;;;;;;;;62.25;46.50;;;;;0.45;70.76;100959.41;5034713;28;45303;-54
2021/12/23 02:11:31;;;;;;;;;50.00;44.00;;;;;0.39;70.61;100951.84;5033296;28;46118;-52
2021/12/23 02:13:57;;;;;;;;;50.50;47.50;;;;;0.48;70.36;100963.66;5016193;28;45481;-54
2021/12/23 02:16:22;;;;;;;;;43.00;31.50;;;;;0.51;70.56;100966.06;5034292;28;45376;-53
2021/12/23 02:18:48;;;;;;;;;56.25;45.75;;;;;0.45;70.38;100961.22;5034705;28;45427;-53
2021/12/23 02:21:13;;;;;;;;;56.00;45.25;;;;;0.08;70.51;100897.94;5034504;28;45675;-54
2021/12/23 02:23:39;;;;;;;;;58.50;41.50;;;;;0.48;70.46;100967.22;5034369;28;45489;-53
2021/12/23 02:26:05;;;;;;;;;42.00;38.75;;;;;0.46;70.85;100966.50;5014417;28;45426;-50
2021/12/23 02:28:30;;;;;;;;;50.25;39.00;;;;;0.08;70.46;100885.31;4999513;28;45992;-55
2021/12/23 02:30:56;;;;;;;;;59.50;43.00;;;;;0.25;70.93;100905.38;4997251;28;45403;-54
2021/12/23 02:33:24;;;;;;;;;56.25;43.25;;;;;0.35;70.71;100918.00;5014695;28;45992;-49
2021/12/23 02:35:51;;;;;;;;;58.00;45.00;;;;;0.48;70.82;100944.75;5014438;28;45436;-50
2021/12/23 02:38:16;;;;;;;;;47.75;41.00;;;;;0.24;70.68;100908.19;5014696;28;45497;-52
2021/12/23 02:40:42;;;;;;;;;64.75;47.00;;;;;0.47;71.48;100941.19;5014876;28;45603;-55
2021/12/23 02:43:11;;;;;;;;;45.00;41.50;;;;;0.48;70.92;100944.75;5014532;28;46324;-50
2021/12/23 02:45:37;;;;;;;;;60.50;45.00;;;;;0.46;70.90;100933.22;5014144;28;45366;-51
2021/12/23 02:48:03;;;;;;;;;46.25;37.25;;;;;0.49;70.78;100939.19;5014510;28;45415;-52
2021/12/23 02:50:29;;;;;;;;;51.75;41.50;;;;;0.46;70.78;100930.53;4997002;28;45319;-55
2021/12/23 02:52:54;;;;;;;;;49.25;39.50;;;;;0.54;70.96;100936.09;4996567;28;46065;-52
2021/12/23 02:55:20;;;;;;;;;62.75;44.75;;;;;0.53;71.08;100934.34;4980157;28;45370;-56
2021/12/23 02:57:45;;;;;;;;;55.25;46.25;;;;;0.36;71.01;100904.38;5014378;28;45318;-55
2021/12/23 03:00:11;;;;;;;;;59.50;48.50;;;;;0.61;70.87;100939.06;5014459;28;45668;-53
2021/12/23 03:02:38;;;;;;;;;55.50;37.25;;;;;0.60;70.90;100940.06;5014401;28;45405;-54
2021/12/23 03:05:04;;;;;;;;;64.25;48.75;;;;;0.57;70.88;100935.78;4980351;28;45481;-56
2021/12/23 03:07:30;;;;;;;;;56.00;47.50;;;;;0.55;71.28;100937.78;5014346;28;45349;-54
2021/12/23 03:09:55;;;;;;;;;43.25;40.00;;;;;0.57;71.40;100930.41;5013982;28;45379;-51
2021/12/23 03:12:21;;;;;;;;;53.25;39.00;;;;;0.59;71.53;100920.28;5014314;28;46482;-54
2021/12/23 03:14:46;;;;;;;;;53.75;41.50;;;;;0.62;70.74;100925.44;5015665;28;45332;-56
2021/12/23 03:17:11;;;;;;;;;48.50;42.25;;;;;0.40;71.12;100886.91;5016063;28;45400;-51
2021/12/23 03:19:37;;;;;;;;;52.50;42.00;;;;;0.57;70.97;100927.69;4999951;28;45284;-55
2021/12/23 03:22:03;;;;;;;;;51.00;38.00;;;;;0.57;71.33;100926.84;5033929;28;45401;-58
2021/12/23 03:24:28;;;;;;;;;38.50;31.50;;;;;0.31;71.06;100882.34;5034558;28;45329;-54
2021/12/23 03:26:54;;;;;;;;;44.75;42.25;;;;;0.56;71.14;100912.47;5036931;28;45355;-51
2021/12/23 03:29:19;;;;;;;;;54.50;41.75;;;;;0.52;70.79;100911.91;5037357;28;45342;-58
2021/12/23 03:31:45;;;;;;;;;54.25;37.00;;;;;0.53;71.63;100902.81;5036988;28;45493;-50
2021/12/23 03:34:10;;;;;;;;;56.75;40.25;;;;;0.56;71.38;100895.41;5036725;28;45332;-51
2021/12/23 03:36:36;;;;;;;;;45.00;37.50;;;;;0.49;71.26;100881.63;5019037;28;45538;-52
2021/12/23 03:39:03;;;;;;;;;57.75;44.50;;;;;0.54;71.41;100903.69;5037158;28;45449;-53
2021/12/23 03:41:28;;;;;;;;;41.50;36.75;;;;;0.53;71.47;100899.25;5036469;28;45434;-49
2021/12/23 03:43:54;;;;;;;;;44.25;40.25;;;;;0.56;71.42;100903.50;5036666;28;45543;-53
2021/12/23 03:46:19;;;;;;;;;49.00;42.75;;;;;0.54;72.10;100892.88;5036898;28;45377;-55
2021/12/23 03:48:45;;;;;;;;;47.00;36.25;;;;;0.56;71.36;100893.56;5037087;28;45245;-53
2021/12/23 03:51:10;;;;;;;;;57.00;43.25;;;;;0.60;71.15;100883.34;5036075;28;46218;-54
2021/12/23 03:53:36;;;;;;;;;61.25;42.25;;;;;0.65;71.65;100881.06;5036888;28;45326;-54
2021/12/23 03:56:01;;;;;;;;;63.00;45.50;;;;;0.65;71.33;100881.91;5036577;28;45358;-55
2021/12/23 03:58:27;;;;;;;;;53.75;37.75;;;;;0.45;71.50;100842.41;5036813;28;45592;-54
2021/12/23 04:00:52;;;;;;;;;54.25;41.50;;;;;0.56;71.07;100852.19;5036304;28;45889;-51
2021/12/23 04:03:18;;;;;;;;;53.25;43.75;;;;;0.63;71.64;100869.53;5018363;28;45526;-55
2021/12/23 04:05:43;;;;;;;;;49.00;40.00;;;;;0.61;71.66;100867.00;5036710;28;45360;-57
2021/12/23 04:08:09;;;;;;;;;50.50;40.50;;;;;0.57;71.97;100865.56;5018818;28;45322;-53
2021/12/23 04:10:34;;;;;;;;;54.25;43.50;;;;;0.36;72.03;100823.34;5036081;28;45565;-56
2021/12/23 04:13:00;;;;;;;;;60.75;47.50;;;;;0.56;71.52;100858.47;5036671;28;45759;-58
2021/12/23 04:15:25;;;;;;;;;49.75;38.00;;;;;0.36;71.81;100820.66;5029812;28;45311;-52
2021/12/23 04:17:51;;;;;;;;;54.75;47.00;;;;;0.58;72.33;100859.16;5016520;28;45371;-52
2021/12/23 04:20:23;;;;;;;;;57.25;48.25;;;;;0.54;71.80;100852.34;5016318;28;46059;-59
2021/12/23 04:22:50;;;;;;;;;57.75;45.00;;;;;0.50;71.94;100848.22;5016019;28;45382;-54
2021/12/23 04:25:16;;;;;;;;;49.00;43.00;;;;;0.54;72.29;100845.09;5016757;28;45433;-55
2021/12/23 04:27:43;;;;;;;;;51.25;42.00;;;;;0.51;72.51;100834.59;4982387;28;45382;-54
2021/12/23 04:30:09;;;;;;;;;49.75;41.00;;;;;0.48;71.39;100820.50;5016133;28;46287;-51
2021/12/23 04:32:35;;;;;;;;;57.00;40.75;;;;;0.58;72.04;100844.81;4981658;28;45504;-56
2021/12/23 04:35:00;;;;;;;;;55.50;45.50;;;;;0.48;72.59;100834.03;5016126;28;45412;-56
2021/12/23 04:37:26;;;;;;;;;47.75;41.00;;;;;0.56;72.26;100839.56;5015501;28;45505;-50
2021/12/23 04:39:51;;;;;;;;;50.25;39.75;;;;;0.58;71.91;100834.84;5015949;28;45418;-55
2021/12/23 04:42:17;;;;;;;;;54.25;42.00;;;;;0.62;72.20;100835.41;5015839;28;45385;-59
2021/12/23 04:44:42;;;;;;;;;50.75;44.75;;;;;0.48;71.67;100798.91;5016090;28;45178;-51
2021/12/23 04:47:08;;;;;;;;;55.25;41.00;;;;;0.66;71.99;100829.59;5016116;28;45468;-55
2021/12/23 04:49:33;;;;;;;;;57.25;45.00;;;;;0.58;71.70;100813.22;4997789;28;45460;-59
2021/12/23 04:51:59;;;;;;;;;56.25;43.50;;;;;0.50;71.74;100792.38;4997847;28;45412;-54
2021/12/23 04:54:24;;;;;;;;;59.75;48.00;;;;;0.76;71.61;100834.13;5016019;28;45940;-53
2021/12/23 04:56:50;;;;;;;;;54.25;42.75;;;;;0.74;71.85;100828.00;5014266;28;45513;-59
2021/12/23 04:59:17;;;;;;;;;50.75;36.75;;;;;0.75;71.55;100827.00;5015936;28;45568;-56
2021/12/23 05:01:42;;;;;;;;;49.50;42.75;;;;;0.64;71.74;100801.03;5015560;28;45403;-51
2021/12/23 05:04:08;;;;;;;;;50.75;43.25;;;;;0.53;71.87;100789.38;4997986;28;45418;-55
2021/12/23 05:06:33;;;;;;;;;50.25;38.75;;;;;0.74;72.34;100812.63;4998033;28;45541;-52
2021/12/23 05:08:59;;;;;;;;;50.75;43.50;;;;;0.78;72.17;100816.75;5015482;28;45684;-54
2021/12/23 05:11:24;;;;;;;;;57.25;46.50;;;;;0.78;71.90;100815.91;5015587;28;45381;-58
2021/12/23 05:13:50;;;;;;;;;40.50;38.75;;;;;0.82;71.81;100825.44;4998894;28;45890;-55
2021/12/23 05:16:16;;;;;;;;;48.50;41.25;;;;;0.72;71.59;100802.97;5025329;28;45445;-52
2021/12/23 05:18:42;;;;;;;;;59.25;47.00;;;;;0.80;71.80;100813.94;5032714;28;45444;-57
2021/12/23 05:21:07;;;;;;;;;53.50;44.50;;;;;0.81;72.22;100819.16;5035206;28;45423;-56
2021/12/23 05:23:33;;;;;;;;;67.00;47.75;;;;;0.81;71.47;100804.81;5019965;28;45946;-50
2021/12/23 05:25:58;;;;;;;;;48.50;40.50;;;;;0.83;71.77;100805.50;5034259;28;45236;-56
2021/12/23 05:28:24;;;;;;;;;51.25;44.25;;;;;0.84;71.68;100792.88;5035319;28;46594;-56
2021/12/23 05:30:50;;;;;;;;;57.00;47.00;;;;;0.80;72.60;100792.31;5017187;28;45261;-49
2021/12/23 05:33:15;;;;;;;;;61.25;44.75;;;;;0.77;71.87;100776.38;5035340;28;45343;-53
2021/12/23 05:35:41;;;;;;;;;59.00;45.50;;;;;0.81;72.09;100781.31;5035483;28;45439;-53
2021/12/23 05:38:06;;;;;;;;;57.75;45.00;;;;;0.68;72.13;100753.78;5034576;28;45878;-52
2021/12/23 05:40:33;;;;;;;;;56.25;45.50;;;;;0.57;71.88;100730.50;5034852;28;45388;-52
2021/12/23 05:42:59;;;;;;;;;48.75;42.00;;;;;0.83;72.04;100775.78;5034954;28;45436;-56
2021/12/23 05:45:24;;;;;;;;;59.50;45.00;;;;;0.86;71.96;100778.19;5035316;28;45413;-56
2021/12/23 05:47:50;;;;;;;;;51.50;45.00;;;;;0.84;72.05;100769.38;5032961;28;45486;-56
2021/12/23 05:50:17;;;;;;;;;46.00;39.50;;;;;0.90;72.41;100776.91;5034791;28;45409;-57
2021/12/23 05:52:42;;;;;;;;;45.50;39.25;;;;;0.90;72.00;100776.91;5034931;28;45318;-55
2021/12/23 05:55:09;;;;;;;;;59.75;45.50;;;;;0.74;72.23;100746.97;5035118;28;45289;-52
2021/12/23 05:57:35;;;;;;;;;44.75;39.25;;;;;0.93;72.24;100773.03;5033199;28;45382;-56
2021/12/23 06:00:01;;;;;;;;;42.50;37.25;;;;;0.97;71.64;100779.00;5034624;28;45387;-55
2021/12/23 06:02:26;;;;;;;;;60.25;47.75;;;;;0.98;72.30;100781.56;5016813;28;45471;-49
2021/12/23 06:04:52;;;;;;;;;57.25;39.25;;;;;0.97;71.63;100779.88;5034835;28;45603;-51
2021/12/23 06:07:17;;;;;;;;;63.25;45.00;;;;;0.98;71.88;100776.16;5033313;28;46503;-58
2021/12/23 06:09:43;;;;;;;;;55.00;43.00;;;;;0.87;71.90;100750.19;5033427;28;45375;-51
2021/12/23 06:12:08;;;;;;;;;53.50;43.25;;;;;1.00;72.23;100776.84;5034251;28;45527;-54
2021/12/23 06:14:34;;;;;;;;;46.25;40.75;;;;;1.01;72.03;100769.63;5033340;28;45410;-58
2021/12/23 06:17:01;;;;;;;;;60.75;47.50;;;;;1.01;72.02;100775.84;5016835;28;45452;-54
2021/12/23 06:19:26;;;;;;;;;62.25;45.75;;;;;1.01;72.22;100777.72;5014761;28;45327;-50
2021/12/23 06:21:52;;;;;;;;;47.75;41.25;;;;;1.02;71.67;100779.41;5013365;28;45351;-57
2021/12/23 06:24:17;;;;;;;;;52.50;45.50;;;;;1.04;72.00;100772.88;5014841;28;45354;-55
2021/12/23 06:26:43;;;;;;;;;57.50;47.25;;;;;1.04;72.07;100775.56;4980458;28;46434;-51
2021/12/23 06:29:08;;;;;;;;;57.50;43.50;;;;;1.05;72.09;100773.69;5014794;28;45374;-55
2021/12/23 06:31:34;;;;;;;;;67.00;48.50;;;;;1.06;71.61;100770.88;5014830;28;45384;-52
2021/12/23 06:33:59;;;;;;;;;48.50;43.25;;;;;1.09;72.06;100788.63;5015037;28;45346;-55
2021/12/23 06:36:25;;;;;;;;;51.25;46.00;;;;;1.06;71.62;100778.09;4997159;28;45482;-59
2021/12/23 06:38:50;;;;;;;;;54.75;44.75;;;;;1.11;71.96;100789.34;5014374;28;45402;-55
2021/12/23 06:41:18;;;;;;;;;55.00;45.50;;;;;0.89;71.92;100750.88;4980625;28;45485;-54
2021/12/23 06:43:43;;;;;;;;;50.25;45.25;;;;;1.14;72.39;100796.31;5014988;28;45259;-58
2021/12/23 06:46:09;;;;;;;;;58.25;40.00;;;;;1.15;71.90;100787.19;5013765;28;46527;-56
2021/12/23 06:48:35;;;;;;;;;62.75;45.25;;;;;1.17;71.76;100790.63;4996744;28;45370;-51
2021/12/23 06:51:00;;;;;;;;;49.50;41.75;;;;;1.15;72.04;100785.34;5014287;28;45439;-55
2021/12/23 06:53:26;;;;;;;;;60.75;48.75;;;;;1.17;71.91;100785.19;5014666;28;45890;-57
2021/12/23 06:55:52;;;;;;;;;50.50;47.00;;;;;0.93;72.00;100746.88;4996452;28;46057;-54
2021/12/23 06:58:19;;;;;;;;;61.50;43.00;;;;;1.17;71.73;100780.63;5014093;28;45371;-54
2021/12/23 07:00:45;;;;;;;;;57.50;47.75;;;;;1.20;72.08;100788.47;5017574;28;45312;-54
2021/12/23 07:03:11;;;;;;;;;58.25;48.50;;;;;1.20;71.61;100785.75;5017435;28;45514;-50
2021/12/23 07:05:36;;;;;;;;;53.75;39.25;;;;;1.20;71.61;100790.28;5017845;28;45387;-51
2021/12/23 07:08:11;;;;;;;;;63.75;46.75;;;;;0.95;72.30;100754.81;5017580;28;45414;-51
2021/12/23 07:10:37;;;;;;;;;54.00;45.25;;;;;1.11;72.20;100780.38;4984921;28;45523;-56
2021/12/23 07:13:02;;;;;;;;;51.00;45.25;;;;;1.19;72.38;100792.13;5017790;28;45329;-52
2021/12/23 07:15:28;;;;;;;;;59.00;46.50;;;;;1.19;71.70;100789.44;5021896;28;45402;-54
2021/12/23 07:17:55;;;;;;;;;65.00;49.00;;;;;1.19;71.51;100791.31;5019629;28;45390;-58
2021/12/23 07:20:21;;;;;;;;;61.50;45.50;;;;;1.19;72.38;100786.72;5037573;28;45475;-52
2021/12/23 07:22:47;;;;;;;;;55.00;42.50;;;;;1.19;72.21;100786.72;5037561;28;45447;-51
2021/12/23 07:25:15;;;;;;;;;56.75;45.75;;;;;1.21;71.82;100794.69;5037028;28;45357;-58
2021/12/23 07:27:41;;;;;;;;;47.50;39.75;;;;;1.21;72.11;100798.28;5019843;28;45308;-59
2021/12/23 07:30:08;;;;;;;;;55.50;48.50;;;;;1.23;72.43;100805.38;5002738;28;45508;-58
2021/12/23 07:32:33;;;;;;;;;47.75;44.75;;;;;1.09;72.38;100783.22;5037194;28;45427;-52
2021/12/23 07:34:59;;;;;;;;;61.00;48.00;;;;;1.06;71.83;100775.41;5036943;28;45563;-55
2021/12/23 07:37:24;;;;;;;;;55.25;46.50;;;;;1.27;71.94;100801.38;5019161;28;45398;-60
2021/12/23 07:39:51;;;;;;;;;50.75;44.25;;;;;1.31;71.71;100798.22;5036879;28;45343;-51
2021/12/23 07:42:18;;;;;;;;;57.50;50.75;;;;;1.33;72.13;100807.03;5037636;28;45297;-54
2021/12/23 07:44:44;;;;;;;;;47.50;40.25;;;;;1.34;72.23;100802.47;5036976;28;46477;-54
2021/12/23 07:47:10;;;;;;;;;56.50;43.75;;;;;1.38;72.49;100809.28;5018426;28;45378;-50
2021/12/23 07:49:36;;;;;;;;;47.00;38.00;;;;;1.40;72.44;100804.59;5037042;28;45410;-50
2021/12/23 07:52:01;;;;;;;;;56.50;44.50;;;;;1.42;72.29;100805.28;5014562;28;45877;-55
2021/12/23 07:54:27;;;;;;;;;55.75;45.75;;;;;1.43;71.66;100803.41;5018521;28;46321;-57
2021/12/23 07:56:52;;;;;;;;;60.50;48.00;;;;;1.25;71.64;100770.91;5036661;28;45389;-52
2021/12/23 07:59:18;;;;;;;;;51.00;42.50;;;;;1.48;71.56;100799.28;5018918;28;45416;-54
2021/12/23 08:01:43;;;;;;;;;61.00;47.75;;;;;1.51;71.65;100805.38;5019084;28;45451;-56
2021/12/23 08:04:09;;;;;;;;;19.25;14.00;;;;;1.50;71.97;100796.44;5036370;28;46325;-55
2021/12/23 08:06:35;;;;;;;;;51.25;44.50;;;;;1.56;71.42;100794.97;5036505;28;45350;-54
2021/12/23 08:09:00;;;;;;;;;60.00;46.00;;;;;1.62;71.56;100799.78;5036870;28;45410;-51
2021/12/23 08:11:26;;;;;;;;;56.75;46.00;;;;;1.69;71.26;100794.59;5018350;28;45438;-53
2021/12/23 08:13:51;;;;;;;;;50.75;44.25;;;;;1.72;71.33;100792.41;5036293;28;45370;-56
2021/12/23 08:16:17;;;;;;;;;57.00;43.75;;;;;1.71;71.79;100789.88;5018361;28;45339;-55
2021/12/23 08:18:43;;;;;;;;;61.75;48.00;;;;;1.82;71.30;100797.78;5018953;28;45827;-50
2021/12/23 08:21:08;;;;;;;;;60.00;45.75;;;;;1.82;71.05;100783.41;5018748;28;45588;-58
2021/12/23 08:23:34;;;;;;;;;52.25;44.25;;;;;1.85;71.09;100783.09;5035902;28;45474;-60
2021/12/23 08:26:03;;;;;;;;;65.75;48.25;;;;;1.91;71.41;100782.47;4955401;28;45475;-53
2021/12/23 08:28:29;;;;;;;;;48.50;44.00;;;;;2.02;70.89;100793.06;5009814;28;45438;-57
2021/12/23 08:30:55;;;;;;;;;50.75;42.25;;;;;2.08;71.02;100788.88;5018252;28;45449;-51
2021/12/23 08:33:20;;;;;;;;;57.25;44.75;;;;;2.12;70.69;100792.13;5018198;28;46557;-59
2021/12/23 08:35:46;;;;;;;;;61.50;48.00;;;;;2.11;71.06;100782.31;5035922;28;45823;-56
2021/12/23 08:38:11;;;;;;;;;53.00;45.50;;;;;2.21;70.90;100779.53;5018318;28;45394;-51
2021/12/23 08:40:37;;;;;;;;;56.25;47.50;;;;;2.10;70.99;100761.66;5018704;28;45252;-60
2021/12/23 08:43:03;;;;;;;;;58.00;47.25;;;;;2.29;70.97;100782.28;5036107;28;46484;-53
2021/12/23 08:45:30;;;;;;;;;70.25;47.00;;;;;2.31;70.73;100783.00;5035688;28;45387;-58
2021/12/23 08:47:56;;;;;;;;;63.00;47.50;;;;;2.38;70.65;100788.63;5018202;28;45248;-59
2021/12/23 08:50:22;;;;;;;;;63.25;47.50;;;;;2.40;70.31;100776.63;5017070;28;45635;-55
2021/12/23 08:52:48;;;;;;;;;62.00;46.00;;;;;2.20;70.30;100729.94;5012991;28;46012;-54
2021/12/23 08:55:13;;;;;;;;;58.50;44.00;;;;;2.43;70.49;100770.06;4981528;28;45485;-58
2021/12/23 08:57:39;;;;;;;;;61.25;46.25;;;;;2.51;70.19;100778.25;4998310;28;45411;-55
2021/12/23 09:00:05;;;;;;;;;50.25;44.75;;;;;2.52;70.38;100777.22;4998176;28;45534;-52
2021/12/23 09:02:31;;;;;;;;;49.00;38.75;;;;;2.55;70.35;100766.09;4997768;28;47114;-58
2021/12/23 09:04:56;;;;;;;;;48.75;41.50;;;;;2.56;70.37;100784.03;4997979;28;45480;-59
2021/12/23 09:07:22;;;;;;;;;57.75;46.50;;;;;2.60;70.54;100775.63;4997922;28;45748;-54
2021/12/23 09:09:50;;;;;;;;;53.00;45.00;;;;;2.63;70.12;100773.44;5015746;28;45374;-58
2021/12/23 09:12:16;;;;;;;;;59.25;46.00;;;;;2.65;70.20;100776.81;5015772;28;45956;-57
2021/12/23 09:14:42;;;;;;;;;52.25;39.25;;;;;2.69;70.35;100783.63;5015608;28;45454;-59
2021/12/23 09:17:07;;;;;;;;;59.50;44.50;;;;;2.70;70.23;100781.75;5029408;28;45408;-55
2021/12/23 09:19:33;;;;;;;;;61.00;44.00;;;;;2.77;70.12;100790.13;5035725;28;45532;-60
2021/12/23 09:21:59;;;;;;;;;53.00;44.75;;;;;2.83;70.35;100790.31;5000568;28;45850;-59
2021/12/23 09:24:26;;;;;;;;;57.00;45.00;;;;;2.84;70.32;100783.88;5027152;28;45544;-53
2021/12/23 09:26:59;;;;;;;;;56.50;46.50;;;;;2.84;70.27;100780.34;5017933;28;45335;-59
2021/12/23 09:34:53;;;;;;;;;55.25;43.75;;;;;2.92;69.80;100782.22;5035588;28;45396;-59
2021/12/23 09:37:19;;;;;;;;;55.25;45.25;;;;;2.88;70.54;100764.59;5018189;28;45395;-59
2021/12/23 09:39:45;;;;;;;;;53.25;43.25;;;;;2.86;70.30;100759.34;5034418;28;45398;-53
2021/12/23 09:42:10;;;;;;;;;43.50;32.50;;;;;2.97;70.64;100788.03;5033586;28;47518;-59
2021/12/23 09:44:36;;;;;;;;;54.00;44.75;;;;;2.98;70.95;100781.59;5035183;28;45360;-59
2021/12/23 09:47:03;;;;;;;;;54.50;46.25;;;;;3.02;70.72;100785.69;5035453;28;45917;-52
2021/12/23 09:49:31;;;;;;;;;60.75;45.50;;;;;2.85;70.86;100744.09;5017312;28;45455;-61
2021/12/23 09:51:57;;;;;;;;;55.25;44.00;;;;;3.09;70.85;100769.59;5003437;28;45371;-59
2021/12/23 09:54:24;;;;;;;;;49.50;44.00;;;;;3.08;70.86;100757.06;5014013;28;45436;-59
2021/12/23 09:56:50;;;;;;;;;54.25;43.50;;;;;3.24;71.53;100768.00;5014027;28;45386;-55
2021/12/23 09:59:15;;;;;;;;;51.75;45.75;;;;;3.24;70.94;100756.28;5014345;28;45421;-56
2021/12/23 10:01:41;;;;;;;;;49.50;42.50;;;;;3.36;70.85;100768.53;5015063;28;46709;-59
2021/12/23 10:04:06;;;;;;;;;55.75;43.50;;;;;3.42;70.87;100768.91;5014876;28;45491;-59
2021/12/23 10:06:32;;;;;;;;;49.50;44.00;;;;;3.24;70.47;100729.16;5014007;28;45371;-59
2021/12/23 10:08:58;;;;;;;;;60.00;45.75;;;;;3.20;70.27;100701.50;5015374;28;45637;-60
2021/12/23 10:12:06;;;;;;;;;65.75;46.50;;;;;3.53;70.71;100757.75;5014937;28;46829;-57
2021/12/23 10:30:00;;;;;;;;;60.40;47.40;;;;;3.82;71.25;100732.03;4994044;28;45414;-56
2021/12/23 10:31:07;;;;;;;;;53.25;44.50;;;;;3.86;71.40;100730.69;4999096;28;45476;-58
2021/12/23 10:37:13;;;;;;;;;44.25;34.75;;;;;3.93;71.16;100715.41;4995305;28;46314;-52
2021/12/23 10:39:24;;;;;;;;;48.75;42.50;;;;;4.01;72.02;100725.41;4998549;28;45430;-67
2021/12/23 10:41:50;;;;;;;;;53.50;41.75;;;;;4.06;72.57;100719.50;4997448;28;45463;-56
2021/12/23 10:44:16;;;;;;;;;49.75;40.50;;;;;4.09;72.63;100712.84;4981054;28;45379;-58
2021/12/23 10:46:42;;;;;;;;;59.50;43.25;;;;;4.09;72.63;100708.28;4980480;28;45348;-62
2021/12/23 10:52:06;;;;;;;;;52.50;42.00;;;;;4.20;72.64;100698.94;4995253;28;45780;-58
2021/12/23 11:00:25;;;;;;;;;48.25;41.50;;;;;4.23;73.13;100697.75;5016527;28;45409;-59
2021/12/23 11:03:21;;;;;;;;;46.25;41.75;;;;;4.30;73.28;100693.31;5017287;28;45375;-59
2021/12/23 11:06:02;;;;;;;;;42.50;32.50;;;;;4.11;74.47;100642.91;5017757;28;46890;-57
2021/12/23 11:08:51;;;;;;;;;39.60;32.40;;;;;4.31;74.30;100670.56;5016119;28;45367;-53
2021/12/23 11:41:18;;;;;;;;;34.20;28.80;;;;;5.04;75.71;100672.38;5035842;28;45541;-58
2021/12/23 11:43:52;;;;;;;;;46.60;33.00;;;;;4.98;75.46;100655.75;5036468;28;45417;-58
2021/12/23 11:46:23;;;;;;;;;37.50;32.50;;;;;5.07;75.51;100653.81;5036619;28;45416;-62
2021/12/23 11:48:52;;;;;;;;;36.60;32.40;;;;;5.20;76.66;100666.84;5035531;28;45490;-60
2021/12/23 11:51:21;;;;;;;;;39.00;32.20;;;;;5.01;76.31;100628.19;5007695;28;45966;-60
2021/12/23 11:53:48;;;;;;;;;37.20;33.00;;;;;5.26;76.16;100652.53;5003130;28;45484;-57
2021/12/23 11:56:15;;;;;;;;;35.75;30.00;;;;;5.30;76.22;100666.63;5009975;28;45398;-57
2021/12/23 11:58:43;;;;;;;;;38.00;31.00;;;;;4.80;76.46;100573.56;5025867;28;45423;-59
2021/12/23 12:01:30;;;;;;;;;35.60;32.20;;;;;5.36;76.45;100648.72;5036519;28;45356;-58
2021/12/23 12:04:01;;;;;;;;;36.60;28.80;;;;;5.41;75.92;100654.50;5037088;28;45440;-59
2021/12/23 12:06:28;;;;;;;;;32.75;31.25;;;;;5.53;76.77;100649.47;5026099;28;45556;-53
2021/12/23 12:08:55;;;;;;;;;31.00;28.80;;;;;5.83;76.36;100642.25;5026163;28;47379;-55
2021/12/23 12:11:25;;;;;;;;;41.60;35.80;;;;;5.96;75.25;100632.63;5034837;28;45459;-60
2021/12/23 12:13:51;;;;;;;;;28.20;26.60;;;;;5.97;75.07;100632.44;5035557;28;45562;-59
2021/12/23 12:16:32;;;;;;;;;36.50;30.25;;;;;5.95;75.20;100625.47;5036883;28;45262;-50
2021/12/23 12:18:58;;;;;;;;;37.40;34.80;;;;;5.91;75.71;100627.72;4995645;28;45467;-61